Stillwater, OK

6:00 PM CDT on August 22, 2014 (GMT -0500)
Guthrie Municipal | Change Station
CLOSE
Current Station
Airport
Location: Guthrie,
Elevation: 1066 ft
Nearby Weather Stations

Elev 1066 ft 35.85 °N, 97.41 °W | Updated 7 minutes ago

Clear
Clear
99 °F
Feels Like 102 °F
N
16
Wind Variable Wind from South

Today
High -- | Low -- °F
--% Chance of Precip.
Yesterday
High -- | Low -- °F
Precip. -- in
6:52 AM 8:09 PM
Waning Crescent, 6% visible
Pressure 29.84 in
Visibility 10.0 miles
Clouds Clear
Heat Index 102 °F
Dew Point 64 °F
Humidity 32%
Rainfall 0.00 in
Snow Depth Not available.
UV 2 out of 12
Pollen 9.90 out of 12
Air Quality Not available.
Flu Activity Not available.
METAR KGOK 222253Z AUTO 17014KT 10SM CLR 37/18 A2988 RMK AO2 SLP105 T03720178

More Conditions Fewer Conditions

Pressure 29.84 in
Visibility 10.0 miles
Clouds Clear
Heat Index 102 °F
Dew Point 64 °F
Humidity 32%
Rainfall 0.00 in
Snow Depth Not available.
UV 2 out of 12
Pollen 9.90 out of 12
Air Quality Not available.
Flu Activity Not available.
METAR KGOK 222253Z AUTO 17014KT 10SM CLR 37/18 A2988 RMK AO2 SLP105 T03720178

More Conditions Fewer Conditions

10-Day Weather Forecast

Almanac

Astronomy

Aug. 22, 2014 Rise Set
Actual Time 6:52 AM CDT 8:09 PM CDT
Civil Twilight 6:25 AM CDT 8:36 PM CDT
Nautical Twilight 5:53 AM CDT 9:08 PM CDT
Astronomical Twilight 5:19 AM CDT 9:41 PM CDT
Moon 4:18 AM CDT 6:17 PM CDT
Length of Visible Light 14h 10m
Length of Day
13h 17m
Tomorrow will be 2m 6s shorter.
Waning Crescent, 6% of the Moon is Illuminated
Today
Waning Crescent
Aug 25
New
Sep 2
First Quarter
Sep 8
Full
Sep 15
Last Quarter

Today's Extremes

State Highs State Lows

Community

WunderPhotos

Upload Photos

1,746,295 photos uploaded!

WunderBlogs® & News

By Dr. Jeff Masters
Director of Meteorology, Weather Underground
By Kari Strenfel
Meteorologist, Weather Underground
By Christopher C. Burt
Weather Historian, Weather Underground
August 22, 2014
August 22, 2014
August 22, 2014

Nearby

Snow Depth

Station Depth Elevation
No new snow has been reported.

Earthquake Activity

City Distance Mag. Time & Date
Boley, Oklahoma 60 miles 3.4 9:50 PM CDT
2014-08-17
Cherokee, Oklahoma 82 miles 3.8 8:25 PM CDT
2014-08-17
Medford, Oklahoma 67 miles 2.9 6:30 PM CDT
2014-08-17
Cherokee, Oklahoma 83 miles 2.6 11:50 AM CDT
2014-08-17
Minimum magnitude displayed is 2.5.

Coastal Water Temperatures

Place Temperature
No Stations Reporting

Nearby Weather Stations